sensor_id;sensor_type;location;lat;lon;timestamp;temperature;humidity
40123;DHT22;25832;45.490;4.912;2023-08-06T00:00:16;17.30;99.70
40123;DHT22;25832;45.490;4.912;2023-08-06T00:02:41;17.30;99.30
40123;DHT22;25832;45.490;4.912;2023-08-06T00:05:07;17.30;98.10
40123;DHT22;25832;45.490;4.912;2023-08-06T00:07:33;17.40;97.50
40123;DHT22;25832;45.490;4.912;2023-08-06T00:09:59;17.50;97.60
40123;DHT22;25832;45.490;4.912;2023-08-06T00:12:24;17.60;97.60
40123;DHT22;25832;45.490;4.912;2023-08-06T00:14:51;17.60;97.10
40123;DHT22;25832;45.490;4.912;2023-08-06T00:17:17;17.70;97.50
40123;DHT22;25832;45.490;4.912;2023-08-06T00:19:43;17.70;97.90
40123;DHT22;25832;45.490;4.912;2023-08-06T00:22:08;17.70;97.90
40123;DHT22;25832;45.490;4.912;2023-08-06T00:24:34;17.70;97.90
40123;DHT22;25832;45.490;4.912;2023-08-06T00:27:00;17.70;97.70
40123;DHT22;25832;45.490;4.912;2023-08-06T00:29:26;17.70;97.90
40123;DHT22;25832;45.490;4.912;2023-08-06T00:31:52;17.80;98.60
40123;DHT22;25832;45.490;4.912;2023-08-06T00:34:17;17.80;98.90
40123;DHT22;25832;45.490;4.912;2023-08-06T00:36:43;17.70;99.50
40123;DHT22;25832;45.490;4.912;2023-08-06T00:39:09;17.60;99.50
40123;DHT22;25832;45.490;4.912;2023-08-06T00:41:34;17.50;99.90
40123;DHT22;25832;45.490;4.912;2023-08-06T00:44:00;17.40;99.90
40123;DHT22;25832;45.490;4.912;2023-08-06T00:46:26;17.30;99.90
40123;DHT22;25832;45.490;4.912;2023-08-06T00:48:52;17.20;99.90
40123;DHT22;25832;45.490;4.912;2023-08-06T00:51:19;17.10;99.90
40123;DHT22;25832;45.490;4.912;2023-08-06T00:53:46;17.10;99.90
40123;DHT22;25832;45.490;4.912;2023-08-06T00:56:12;17.00;99.90
40123;DHT22;25832;45.490;4.912;2023-08-06T00:58:39;17.00;99.90
40123;DHT22;25832;45.490;4.912;2023-08-06T01:01:05;16.90;99.90
40123;DHT22;25832;45.490;4.912;2023-08-06T01:03:30;16.90;99.90
40123;DHT22;25832;45.490;4.912;2023-08-06T01:05:56;16.90;99.90
40123;DHT22;25832;45.490;4.912;2023-08-06T01:14:08;17.00;99.60
40123;DHT22;25832;45.490;4.912;2023-08-06T01:16:39;17.00;99.50
40123;DHT22;25832;45.490;4.912;2023-08-06T01:19:18;17.00;99.70
40123;DHT22;25832;45.490;4.912;2023-08-06T01:21:44;17.00;99.50
40123;DHT22;25832;45.490;4.912;2023-08-06T01:24:10;17.00;99.40
40123;DHT22;25832;45.490;4.912;2023-08-06T01:26:42;17.00;99.40
40123;DHT22;25832;45.490;4.912;2023-08-06T01:29:17;16.90;99.20
40123;DHT22;25832;45.490;4.912;2023-08-06T01:31:47;16.90;99.20
40123;DHT22;25832;45.490;4.912;2023-08-06T01:34:24;16.90;99.20
40123;DHT22;25832;45.490;4.912;2023-08-06T01:36:51;16.80;99.10
40123;DHT22;25832;45.490;4.912;2023-08-06T01:39:17;16.80;99.10
40123;DHT22;25832;45.490;4.912;2023-08-06T01:41:47;16.70;99.10
40123;DHT22;25832;45.490;4.912;2023-08-06T01:44:12;16.70;99.00
40123;DHT22;25832;45.490;4.912;2023-08-06T01:46:38;16.70;99.20
40123;DHT22;25832;45.490;4.912;2023-08-06T01:49:04;16.60;99.20
40123;DHT22;25832;45.490;4.912;2023-08-06T01:51:30;16.60;99.40
40123;DHT22;25832;45.490;4.912;2023-08-06T01:53:55;16.60;99.50
40123;DHT22;25832;45.490;4.912;2023-08-06T01:56:21;16.60;99.90
40123;DHT22;25832;45.490;4.912;2023-08-06T01:58:47;16.50;99.90
40123;DHT22;25832;45.490;4.912;2023-08-06T02:01:12;16.30;99.90
40123;DHT22;25832;45.490;4.912;2023-08-06T02:03:38;16.10;99.90
40123;DHT22;25832;45.490;4.912;2023-08-06T02:06:04;16.00;99.90
40123;DHT22;25832;45.490;4.912;2023-08-06T02:08:30;15.90;99.90
40123;DHT22;25832;45.490;4.912;2023-08-06T02:10:56;15.80;99.90
40123;DHT22;25832;45.490;4.912;2023-08-06T02:13:23;15.90;99.90
40123;DHT22;25832;45.490;4.912;2023-08-06T02:15:48;16.10;99.90
40123;DHT22;25832;45.490;4.912;2023-08-06T02:18:14;16.10;99.90
40123;DHT22;25832;45.490;4.912;2023-08-06T02:20:41;16.30;99.90
40123;DHT22;25832;45.490;4.912;2023-08-06T02:23:07;16.50;99.50
40123;DHT22;25832;45.490;4.912;2023-08-06T02:25:32;16.60;99.50
40123;DHT22;25832;45.490;4.912;2023-08-06T02:27:58;16.60;99.60
40123;DHT22;25832;45.490;4.912;2023-08-06T02:30:24;16.60;99.70
40123;DHT22;25832;45.490;4.912;2023-08-06T02:32:49;16.60;99.10
40123;DHT22;25832;45.490;4.912;2023-08-06T02:35:15;16.60;99.20
40123;DHT22;25832;45.490;4.912;2023-08-06T02:37:41;16.50;99.50
40123;DHT22;25832;45.490;4.912;2023-08-06T02:40:07;16.50;99.10
40123;DHT22;25832;45.490;4.912;2023-08-06T02:42:32;16.50;99.10
40123;DHT22;25832;45.490;4.912;2023-08-06T02:44:58;16.50;98.60
40123;DHT22;25832;45.490;4.912;2023-08-06T02:47:24;16.50;98.20
40123;DHT22;25832;45.490;4.912;2023-08-06T02:49:49;16.50;98.60
40123;DHT22;25832;45.490;4.912;2023-08-06T02:52:15;16.40;98.40
40123;DHT22;25832;45.490;4.912;2023-08-06T02:54:41;16.40;98.30
40123;DHT22;25832;45.490;4.912;2023-08-06T02:57:06;16.40;98.30
40123;DHT22;25832;45.490;4.912;2023-08-06T02:59:32;16.30;98.30
40123;DHT22;25832;45.490;4.912;2023-08-06T03:01:58;16.30;98.50
40123;DHT22;25832;45.490;4.912;2023-08-06T03:04:24;16.20;98.40
40123;DHT22;25832;45.490;4.912;2023-08-06T03:06:50;16.10;98.50
40123;DHT22;25832;45.490;4.912;2023-08-06T03:09:17;16.00;98.60
40123;DHT22;25832;45.490;4.912;2023-08-06T03:11:42;16.00;98.50
40123;DHT22;25832;45.490;4.912;2023-08-06T03:14:08;15.90;98.30
40123;DHT22;25832;45.490;4.912;2023-08-06T03:16:34;15.90;98.40
40123;DHT22;25832;45.490;4.912;2023-08-06T03:19:00;15.90;98.20
40123;DHT22;25832;45.490;4.912;2023-08-06T03:21:25;15.90;98.10
40123;DHT22;25832;45.490;4.912;2023-08-06T03:23:51;15.90;98.10
40123;DHT22;25832;45.490;4.912;2023-08-06T03:26:16;15.90;98.10
40123;DHT22;25832;45.490;4.912;2023-08-06T03:28:42;15.80;98.10
40123;DHT22;25832;45.490;4.912;2023-08-06T03:31:08;15.80;98.20
40123;DHT22;25832;45.490;4.912;2023-08-06T03:33:33;15.80;97.70
40123;DHT22;25832;45.490;4.912;2023-08-06T03:35:59;15.70;97.80
40123;DHT22;25832;45.490;4.912;2023-08-06T03:38:25;15.70;97.70
40123;DHT22;25832;45.490;4.912;2023-08-06T03:40:51;15.70;97.50
40123;DHT22;25832;45.490;4.912;2023-08-06T03:43:16;15.80;97.30
40123;DHT22;25832;45.490;4.912;2023-08-06T03:45:42;15.80;97.20
40123;DHT22;25832;45.490;4.912;2023-08-06T03:48:08;15.90;97.00
40123;DHT22;25832;45.490;4.912;2023-08-06T03:50:34;15.90;96.60
40123;DHT22;25832;45.490;4.912;2023-08-06T03:53:00;16.00;96.70
40123;DHT22;25832;45.490;4.912;2023-08-06T03:55:26;16.00;96.50
40123;DHT22;25832;45.490;4.912;2023-08-06T03:57:51;16.00;96.30
40123;DHT22;25832;45.490;4.912;2023-08-06T04:00:17;16.10;96.20
40123;DHT22;25832;45.490;4.912;2023-08-06T04:02:43;16.10;95.80
40123;DHT22;25832;45.490;4.912;2023-08-06T04:05:08;16.30;95.60
40123;DHT22;25832;45.490;4.912;2023-08-06T04:07:34;16.30;95.70
40123;DHT22;25832;45.490;4.912;2023-08-06T04:10:02;16.30;95.50
40123;DHT22;25832;45.490;4.912;2023-08-06T04:12:28;16.20;95.90
40123;DHT22;25832;45.490;4.912;2023-08-06T04:14:55;16.10;95.90
40123;DHT22;25832;45.490;4.912;2023-08-06T04:17:21;16.10;96.00
40123;DHT22;25832;45.490;4.912;2023-08-06T04:19:51;16.10;96.30
40123;DHT22;25832;45.490;4.912;2023-08-06T04:22:17;16.00;96.50
40123;DHT22;25832;45.490;4.912;2023-08-06T04:24:43;15.90;96.40
40123;DHT22;25832;45.490;4.912;2023-08-06T04:27:09;15.90;96.60
40123;DHT22;25832;45.490;4.912;2023-08-06T04:29:36;15.90;96.50
40123;DHT22;25832;45.490;4.912;2023-08-06T04:32:05;16.00;96.20
40123;DHT22;25832;45.490;4.912;2023-08-06T04:34:31;15.90;96.10
40123;DHT22;25832;45.490;4.912;2023-08-06T04:36:56;16.00;96.20
40123;DHT22;25832;45.490;4.912;2023-08-06T04:39:22;16.00;95.80
40123;DHT22;25832;45.490;4.912;2023-08-06T04:41:47;16.00;95.50
40123;DHT22;25832;45.490;4.912;2023-08-06T04:44:13;16.10;95.50
40123;DHT22;25832;45.490;4.912;2023-08-06T04:46:39;16.20;95.40
40123;DHT22;25832;45.490;4.912;2023-08-06T04:49:04;16.30;95.20
40123;DHT22;25832;45.490;4.912;2023-08-06T04:51:30;16.30;95.30
40123;DHT22;25832;45.490;4.912;2023-08-06T04:53:57;16.30;95.10
40123;DHT22;25832;45.490;4.912;2023-08-06T04:56:23;16.40;95.20
40123;DHT22;25832;45.490;4.912;2023-08-06T04:58:49;16.40;95.00
40123;DHT22;25832;45.490;4.912;2023-08-06T05:01:15;16.40;95.10
40123;DHT22;25832;45.490;4.912;2023-08-06T05:03:40;16.50;95.20
40123;DHT22;25832;45.490;4.912;2023-08-06T05:06:06;16.50;95.40
40123;DHT22;25832;45.490;4.912;2023-08-06T05:08:32;16.40;95.80
40123;DHT22;25832;45.490;4.912;2023-08-06T05:10:57;16.40;96.00
40123;DHT22;25832;45.490;4.912;2023-08-06T05:13:23;16.40;96.20
40123;DHT22;25832;45.490;4.912;2023-08-06T05:15:49;16.30;96.50
40123;DHT22;25832;45.490;4.912;2023-08-06T05:18:14;16.20;96.80
40123;DHT22;25832;45.490;4.912;2023-08-06T05:20:42;16.10;96.90
40123;DHT22;25832;45.490;4.912;2023-08-06T05:23:07;16.10;97.10
40123;DHT22;25832;45.490;4.912;2023-08-06T05:25:37;16.00;97.30
40123;DHT22;25832;45.490;4.912;2023-08-06T05:28:03;16.00;97.40
40123;DHT22;25832;45.490;4.912;2023-08-06T05:30:29;16.00;97.30
40123;DHT22;25832;45.490;4.912;2023-08-06T05:32:55;15.90;97.40
40123;DHT22;25832;45.490;4.912;2023-08-06T05:35:21;15.90;97.60
40123;DHT22;25832;45.490;4.912;2023-08-06T05:37:47;15.80;97.80
40123;DHT22;25832;45.490;4.912;2023-08-06T05:40:13;15.80;97.70
40123;DHT22;25832;45.490;4.912;2023-08-06T05:42:39;15.80;97.50
40123;DHT22;25832;45.490;4.912;2023-08-06T05:45:05;15.80;97.20
40123;DHT22;25832;45.490;4.912;2023-08-06T05:47:30;15.70;97.20
40123;DHT22;25832;45.490;4.912;2023-08-06T05:49:56;15.70;97.10
40123;DHT22;25832;45.490;4.912;2023-08-06T05:52:22;15.70;96.50
40123;DHT22;25832;45.490;4.912;2023-08-06T05:54:47;15.70;96.20
40123;DHT22;25832;45.490;4.912;2023-08-06T05:57:13;15.70;96.10
40123;DHT22;25832;45.490;4.912;2023-08-06T05:59:40;15.80;95.90
40123;DHT22;25832;45.490;4.912;2023-08-06T06:02:06;15.80;95.80
40123;DHT22;25832;45.490;4.912;2023-08-06T06:04:31;15.90;95.80
40123;DHT22;25832;45.490;4.912;2023-08-06T06:06:57;15.90;95.80
40123;DHT22;25832;45.490;4.912;2023-08-06T06:09:23;15.90;94.90
40123;DHT22;25832;45.490;4.912;2023-08-06T06:11:48;16.00;95.10
40123;DHT22;25832;45.490;4.912;2023-08-06T06:14:16;16.00;94.70
40123;DHT22;25832;45.490;4.912;2023-08-06T06:16:42;16.00;94.70
40123;DHT22;25832;45.490;4.912;2023-08-06T06:19:07;16.00;94.10
40123;DHT22;25832;45.490;4.912;2023-08-06T06:21:33;16.10;94.00
40123;DHT22;25832;45.490;4.912;2023-08-06T06:23:59;16.00;94.20
40123;DHT22;25832;45.490;4.912;2023-08-06T06:26:24;16.00;94.20
40123;DHT22;25832;45.490;4.912;2023-08-06T06:28:50;16.10;94.20
40123;DHT22;25832;45.490;4.912;2023-08-06T06:31:16;16.10;94.40
40123;DHT22;25832;45.490;4.912;2023-08-06T06:33:41;16.10;94.40
40123;DHT22;25832;45.490;4.912;2023-08-06T06:36:07;16.10;94.60
40123;DHT22;25832;45.490;4.912;2023-08-06T06:38:33;16.10;95.00
40123;DHT22;25832;45.490;4.912;2023-08-06T06:40:59;16.20;95.00
40123;DHT22;25832;45.490;4.912;2023-08-06T06:43:26;16.20;94.70
40123;DHT22;25832;45.490;4.912;2023-08-06T06:45:59;16.20;94.60
40123;DHT22;25832;45.490;4.912;2023-08-06T06:48:31;16.10;94.80
40123;DHT22;25832;45.490;4.912;2023-08-06T06:50:57;16.10;95.00
40123;DHT22;25832;45.490;4.912;2023-08-06T06:53:23;16.10;95.00
40123;DHT22;25832;45.490;4.912;2023-08-06T06:56:01;16.10;95.10
40123;DHT22;25832;45.490;4.912;2023-08-06T06:58:27;16.10;95.50
40123;DHT22;25832;45.490;4.912;2023-08-06T07:00:52;16.10;95.70
40123;DHT22;25832;45.490;4.912;2023-08-06T07:03:19;16.10;95.20
40123;DHT22;25832;45.490;4.912;2023-08-06T07:05:45;16.10;95.30
40123;DHT22;25832;45.490;4.912;2023-08-06T07:08:11;16.10;95.40
40123;DHT22;25832;45.490;4.912;2023-08-06T07:10:37;16.10;95.50
40123;DHT22;25832;45.490;4.912;2023-08-06T07:13:03;16.10;95.60
40123;DHT22;25832;45.490;4.912;2023-08-06T07:15:28;16.10;95.60
40123;DHT22;25832;45.490;4.912;2023-08-06T07:17:54;16.10;95.50
40123;DHT22;25832;45.490;4.912;2023-08-06T07:20:20;16.20;95.70
40123;DHT22;25832;45.490;4.912;2023-08-06T07:22:46;16.20;95.50
40123;DHT22;25832;45.490;4.912;2023-08-06T07:25:11;16.30;95.70
40123;DHT22;25832;45.490;4.912;2023-08-06T07:27:37;16.30;95.50
40123;DHT22;25832;45.490;4.912;2023-08-06T07:30:03;16.30;95.80
40123;DHT22;25832;45.490;4.912;2023-08-06T07:32:30;16.40;95.00
40123;DHT22;25832;45.490;4.912;2023-08-06T07:34:56;16.40;95.40
40123;DHT22;25832;45.490;4.912;2023-08-06T07:37:26;16.40;94.80
40123;DHT22;25832;45.490;4.912;2023-08-06T07:39:54;16.40;95.20
40123;DHT22;25832;45.490;4.912;2023-08-06T07:42:19;16.40;95.10
40123;DHT22;25832;45.490;4.912;2023-08-06T07:44:59;16.40;95.00
40123;DHT22;25832;45.490;4.912;2023-08-06T07:47:24;16.50;95.10
40123;DHT22;25832;45.490;4.912;2023-08-06T07:49:50;16.70;94.70
40123;DHT22;25832;45.490;4.912;2023-08-06T07:52:16;16.70;94.60
40123;DHT22;25832;45.490;4.912;2023-08-06T07:54:42;16.80;94.70
40123;DHT22;25832;45.490;4.912;2023-08-06T07:57:07;16.90;94.50
40123;DHT22;25832;45.490;4.912;2023-08-06T07:59:33;17.00;94.10
40123;DHT22;25832;45.490;4.912;2023-08-06T08:01:59;17.10;93.60
40123;DHT22;25832;45.490;4.912;2023-08-06T08:04:25;17.10;94.00
40123;DHT22;25832;45.490;4.912;2023-08-06T08:06:51;17.20;93.70
40123;DHT22;25832;45.490;4.912;2023-08-06T08:09:16;17.30;93.30
40123;DHT22;25832;45.490;4.912;2023-08-06T08:11:42;17.30;93.60
40123;DHT22;25832;45.490;4.912;2023-08-06T08:14:08;17.40;93.30
40123;DHT22;25832;45.490;4.912;2023-08-06T08:16:33;17.30;93.60
40123;DHT22;25832;45.490;4.912;2023-08-06T08:18:59;17.40;93.50
40123;DHT22;25832;45.490;4.912;2023-08-06T08:21:25;17.30;93.30
40123;DHT22;25832;45.490;4.912;2023-08-06T08:23:51;17.20;93.50
40123;DHT22;25832;45.490;4.912;2023-08-06T08:26:17;17.20;93.50
40123;DHT22;25832;45.490;4.912;2023-08-06T08:28:43;17.10;93.30
40123;DHT22;25832;45.490;4.912;2023-08-06T08:31:10;17.20;93.40
40123;DHT22;25832;45.490;4.912;2023-08-06T08:33:39;17.30;93.50
40123;DHT22;25832;45.490;4.912;2023-08-06T08:36:05;17.30;93.30
40123;DHT22;25832;45.490;4.912;2023-08-06T08:38:31;17.30;93.40
40123;DHT22;25832;45.490;4.912;2023-08-06T08:40:56;17.40;93.50
40123;DHT22;25832;45.490;4.912;2023-08-06T08:43:22;17.50;93.20
40123;DHT22;25832;45.490;4.912;2023-08-06T08:45:52;17.60;93.30
40123;DHT22;25832;45.490;4.912;2023-08-06T08:48:18;17.60;93.10
40123;DHT22;25832;45.490;4.912;2023-08-06T08:50:46;17.50;93.20
40123;DHT22;25832;45.490;4.912;2023-08-06T08:53:14;17.50;93.10
40123;DHT22;25832;45.490;4.912;2023-08-06T08:55:41;17.50;93.30
40123;DHT22;25832;45.490;4.912;2023-08-06T08:58:08;17.50;93.10
40123;DHT22;25832;45.490;4.912;2023-08-06T09:00:34;17.60;93.60
40123;DHT22;25832;45.490;4.912;2023-08-06T09:03:00;17.70;93.00
40123;DHT22;25832;45.490;4.912;2023-08-06T09:05:28;17.70;93.10
40123;DHT22;25832;45.490;4.912;2023-08-06T09:08:04;17.70;92.80
40123;DHT22;25832;45.490;4.912;2023-08-06T09:10:30;17.70;92.60
40123;DHT22;25832;45.490;4.912;2023-08-06T09:12:56;17.80;92.90
40123;DHT22;25832;45.490;4.912;2023-08-06T09:15:26;17.70;92.20
40123;DHT22;25832;45.490;4.912;2023-08-06T09:17:53;17.60;92.40
40123;DHT22;25832;45.490;4.912;2023-08-06T09:20:19;17.50;92.10
40123;DHT22;25832;45.490;4.912;2023-08-06T09:22:45;17.40;92.60
40123;DHT22;25832;45.490;4.912;2023-08-06T09:25:21;17.40;92.60
40123;DHT22;25832;45.490;4.912;2023-08-06T09:27:47;17.50;92.40
40123;DHT22;25832;45.490;4.912;2023-08-06T09:30:29;17.50;92.30
40123;DHT22;25832;45.490;4.912;2023-08-06T09:32:55;17.70;92.30
40123;DHT22;25832;45.490;4.912;2023-08-06T09:35:21;17.80;92.40
40123;DHT22;25832;45.490;4.912;2023-08-06T09:37:47;17.80;92.30
40123;DHT22;25832;45.490;4.912;2023-08-06T09:42:52;17.90;91.70
40123;DHT22;25832;45.490;4.912;2023-08-06T09:45:18;17.90;91.80
40123;DHT22;25832;45.490;4.912;2023-08-06T09:47:44;18.00;91.50
40123;DHT22;25832;45.490;4.912;2023-08-06T09:50:17;18.00;91.40
40123;DHT22;25832;45.490;4.912;2023-08-06T09:52:44;18.20;91.00
40123;DHT22;25832;45.490;4.912;2023-08-06T09:55:13;18.20;91.00
40123;DHT22;25832;45.490;4.912;2023-08-06T09:57:42;18.20;90.90
40123;DHT22;25832;45.490;4.912;2023-08-06T10:00:11;18.30;90.60
40123;DHT22;25832;45.490;4.912;2023-08-06T10:02:39;18.30;90.30
40123;DHT22;25832;45.490;4.912;2023-08-06T10:05:08;18.40;90.80
40123;DHT22;25832;45.490;4.912;2023-08-06T10:07:35;18.40;91.00
40123;DHT22;25832;45.490;4.912;2023-08-06T10:10:01;18.40;90.50
40123;DHT22;25832;45.490;4.912;2023-08-06T10:12:30;18.50;90.40
40123;DHT22;25832;45.490;4.912;2023-08-06T10:15:01;18.60;90.00
40123;DHT22;25832;45.490;4.912;2023-08-06T10:17:27;18.80;90.80
40123;DHT22;25832;45.490;4.912;2023-08-06T10:19:53;18.90;88.90
40123;DHT22;25832;45.490;4.912;2023-08-06T10:22:22;19.10;88.50
40123;DHT22;25832;45.490;4.912;2023-08-06T10:24:56;19.10;88.30
40123;DHT22;25832;45.490;4.912;2023-08-06T10:30:09;19.30;87.60
40123;DHT22;25832;45.490;4.912;2023-08-06T10:32:52;19.20;88.30
40123;DHT22;25832;45.490;4.912;2023-08-06T10:43:40;18.80;87.90
40123;DHT22;25832;45.490;4.912;2023-08-06T10:46:20;18.60;88.30
40123;DHT22;25832;45.490;4.912;2023-08-06T10:48:46;18.60;89.10
40123;DHT22;25832;45.490;4.912;2023-08-06T10:51:13;18.50;88.90
40123;DHT22;25832;45.490;4.912;2023-08-06T10:53:44;18.40;89.30
40123;DHT22;25832;45.490;4.912;2023-08-06T10:56:28;18.30;89.30
40123;DHT22;25832;45.490;4.912;2023-08-06T10:58:55;18.20;90.30
40123;DHT22;25832;45.490;4.912;2023-08-06T11:01:24;18.40;90.30
40123;DHT22;25832;45.490;4.912;2023-08-06T11:03:54;18.50;90.00
40123;DHT22;25832;45.490;4.912;2023-08-06T11:06:21;18.60;89.50
40123;DHT22;25832;45.490;4.912;2023-08-06T11:08:49;18.70;90.10
40123;DHT22;25832;45.490;4.912;2023-08-06T11:11:16;18.90;90.10
40123;DHT22;25832;45.490;4.912;2023-08-06T11:13:46;19.00;90.00
40123;DHT22;25832;45.490;4.912;2023-08-06T11:16:30;19.10;89.80
40123;DHT22;25832;45.490;4.912;2023-08-06T11:18:55;19.30;90.10
40123;DHT22;25832;45.490;4.912;2023-08-06T11:21:22;19.50;89.00
40123;DHT22;25832;45.490;4.912;2023-08-06T11:23:51;19.60;86.70
40123;DHT22;25832;45.490;4.912;2023-08-06T11:26:20;19.80;88.00
40123;DHT22;25832;45.490;4.912;2023-08-06T11:28:46;20.00;89.20
40123;DHT22;25832;45.490;4.912;2023-08-06T11:31:24;20.30;86.60
40123;DHT22;25832;45.490;4.912;2023-08-06T11:33:54;20.50;83.70
40123;DHT22;25832;45.490;4.912;2023-08-06T11:36:33;20.70;82.50
40123;DHT22;25832;45.490;4.912;2023-08-06T11:39:00;20.60;81.40
40123;DHT22;25832;45.490;4.912;2023-08-06T11:41:37;20.50;82.80
40123;DHT22;25832;45.490;4.912;2023-08-06T11:44:06;20.30;82.20
40123;DHT22;25832;45.490;4.912;2023-08-06T11:46:53;20.10;82.50
40123;DHT22;25832;45.490;4.912;2023-08-06T11:52:19;19.90;82.90
40123;DHT22;25832;45.490;4.912;2023-08-06T11:57:32;20.00;84.90
40123;DHT22;25832;45.490;4.912;2023-08-06T12:00:11;20.10;84.00
40123;DHT22;25832;45.490;4.912;2023-08-06T12:02:39;20.10;82.90
40123;DHT22;25832;45.490;4.912;2023-08-06T12:05:14;20.10;83.20
40123;DHT22;25832;45.490;4.912;2023-08-06T12:07:42;20.20;83.60
40123;DHT22;25832;45.490;4.912;2023-08-06T12:10:08;20.30;82.00
40123;DHT22;25832;45.490;4.912;2023-08-06T12:12:35;20.40;82.40
40123;DHT22;25832;45.490;4.912;2023-08-06T12:15:01;20.40;81.20
40123;DHT22;25832;45.490;4.912;2023-08-06T12:17:27;20.50;82.00
40123;DHT22;25832;45.490;4.912;2023-08-06T12:19:52;20.40;81.10
40123;DHT22;25832;45.490;4.912;2023-08-06T12:22:18;20.30;81.90
40123;DHT22;25832;45.490;4.912;2023-08-06T12:24:46;20.10;81.40
40123;DHT22;25832;45.490;4.912;2023-08-06T12:27:13;19.90;82.00
40123;DHT22;25832;45.490;4.912;2023-08-06T12:29:44;19.90;83.70
40123;DHT22;25832;45.490;4.912;2023-08-06T12:32:10;20.00;82.40
40123;DHT22;25832;45.490;4.912;2023-08-06T12:34:38;20.10;82.00
40123;DHT22;25832;45.490;4.912;2023-08-06T12:37:04;20.10;82.50
40123;DHT22;25832;45.490;4.912;2023-08-06T12:39:30;20.20;82.20
40123;DHT22;25832;45.490;4.912;2023-08-06T12:41:56;20.10;82.60
40123;DHT22;25832;45.490;4.912;2023-08-06T12:44:23;20.20;82.60
40123;DHT22;25832;45.490;4.912;2023-08-06T12:46:51;20.30;82.80
40123;DHT22;25832;45.490;4.912;2023-08-06T12:49:17;20.40;83.60
40123;DHT22;25832;45.490;4.912;2023-08-06T12:51:43;20.70;81.90
40123;DHT22;25832;45.490;4.912;2023-08-06T12:54:09;20.80;82.20
40123;DHT22;25832;45.490;4.912;2023-08-06T12:56:35;20.90;81.20
40123;DHT22;25832;45.490;4.912;2023-08-06T12:59:00;20.90;78.70
40123;DHT22;25832;45.490;4.912;2023-08-06T13:01:26;20.60;80.80
40123;DHT22;25832;45.490;4.912;2023-08-06T13:03:52;20.60;80.00
40123;DHT22;25832;45.490;4.912;2023-08-06T13:06:17;20.70;81.00
40123;DHT22;25832;45.490;4.912;2023-08-06T13:08:43;20.80;81.00
40123;DHT22;25832;45.490;4.912;2023-08-06T13:11:09;20.80;80.90
40123;DHT22;25832;45.490;4.912;2023-08-06T13:13:35;20.90;79.60
40123;DHT22;25832;45.490;4.912;2023-08-06T13:16:00;21.00;79.40
40123;DHT22;25832;45.490;4.912;2023-08-06T13:18:26;21.30;79.00
40123;DHT22;25832;45.490;4.912;2023-08-06T13:20:55;21.30;78.40
40123;DHT22;25832;45.490;4.912;2023-08-06T13:23:21;21.20;79.60
40123;DHT22;25832;45.490;4.912;2023-08-06T13:25:47;21.30;78.90
40123;DHT22;25832;45.490;4.912;2023-08-06T13:28:12;21.40;78.40
40123;DHT22;25832;45.490;4.912;2023-08-06T13:30:39;21.70;80.80
40123;DHT22;25832;45.490;4.912;2023-08-06T13:33:10;21.90;77.70
40123;DHT22;25832;45.490;4.912;2023-08-06T13:35:36;22.00;79.60
40123;DHT22;25832;45.490;4.912;2023-08-06T13:38:02;22.00;77.60
40123;DHT22;25832;45.490;4.912;2023-08-06T13:40:34;21.80;76.70
40123;DHT22;25832;45.490;4.912;2023-08-06T13:43:00;21.50;77.30
40123;DHT22;25832;45.490;4.912;2023-08-06T13:45:25;21.50;77.40
40123;DHT22;25832;45.490;4.912;2023-08-06T13:47:51;21.50;78.00
40123;DHT22;25832;45.490;4.912;2023-08-06T13:50:17;21.40;78.20
40123;DHT22;25832;45.490;4.912;2023-08-06T13:52:43;21.30;78.40
40123;DHT22;25832;45.490;4.912;2023-08-06T13:55:08;21.10;78.70
40123;DHT22;25832;45.490;4.912;2023-08-06T13:57:34;21.00;79.00
40123;DHT22;25832;45.490;4.912;2023-08-06T14:00:01;21.00;79.90
40123;DHT22;25832;45.490;4.912;2023-08-06T14:02:26;21.10;79.90
40123;DHT22;25832;45.490;4.912;2023-08-06T14:04:52;21.10;79.30
40123;DHT22;25832;45.490;4.912;2023-08-06T14:07:18;21.00;78.50
40123;DHT22;25832;45.490;4.912;2023-08-06T14:09:44;20.80;79.80
40123;DHT22;25832;45.490;4.912;2023-08-06T14:12:10;20.90;79.50
40123;DHT22;25832;45.490;4.912;2023-08-06T14:14:35;21.00;79.90
40123;DHT22;25832;45.490;4.912;2023-08-06T14:17:01;21.00;79.50
40123;DHT22;25832;45.490;4.912;2023-08-06T14:19:27;21.10;80.70
40123;DHT22;25832;45.490;4.912;2023-08-06T14:21:54;21.20;79.60
40123;DHT22;25832;45.490;4.912;2023-08-06T14:24:20;21.10;79.10
40123;DHT22;25832;45.490;4.912;2023-08-06T14:26:46;21.00;79.00
40123;DHT22;25832;45.490;4.912;2023-08-06T14:29:12;20.80;78.50
40123;DHT22;25832;45.490;4.912;2023-08-06T14:31:39;20.60;79.00
40123;DHT22;25832;45.490;4.912;2023-08-06T14:34:05;20.50;80.00
40123;DHT22;25832;45.490;4.912;2023-08-06T14:36:30;20.40;80.90
40123;DHT22;25832;45.490;4.912;2023-08-06T14:38:56;20.40;80.90
40123;DHT22;25832;45.490;4.912;2023-08-06T14:41:22;20.60;81.40
40123;DHT22;25832;45.490;4.912;2023-08-06T14:43:47;20.60;80.40
40123;DHT22;25832;45.490;4.912;2023-08-06T14:46:13;20.60;80.50
40123;DHT22;25832;45.490;4.912;2023-08-06T14:48:38;20.60;80.80
40123;DHT22;25832;45.490;4.912;2023-08-06T14:51:05;20.50;79.70
40123;DHT22;25832;45.490;4.912;2023-08-06T14:53:30;20.40;80.10
40123;DHT22;25832;45.490;4.912;2023-08-06T14:55:56;20.30;81.00
40123;DHT22;25832;45.490;4.912;2023-08-06T14:58:21;20.30;81.70
40123;DHT22;25832;45.490;4.912;2023-08-06T15:00:47;20.30;81.70
40123;DHT22;25832;45.490;4.912;2023-08-06T15:03:13;20.30;80.50
40123;DHT22;25832;45.490;4.912;2023-08-06T15:05:38;20.20;81.00
40123;DHT22;25832;45.490;4.912;2023-08-06T15:08:04;20.30;81.20
40123;DHT22;25832;45.490;4.912;2023-08-06T15:10:29;20.30;81.00
40123;DHT22;25832;45.490;4.912;2023-08-06T15:12:55;20.30;81.30
40123;DHT22;25832;45.490;4.912;2023-08-06T15:15:21;20.30;81.20
40123;DHT22;25832;45.490;4.912;2023-08-06T15:17:49;20.30;80.90
40123;DHT22;25832;45.490;4.912;2023-08-06T15:20:15;20.30;81.20
40123;DHT22;25832;45.490;4.912;2023-08-06T15:22:41;20.40;80.50
40123;DHT22;25832;45.490;4.912;2023-08-06T15:25:07;20.40;80.80
40123;DHT22;25832;45.490;4.912;2023-08-06T15:27:32;20.40;80.70
40123;DHT22;25832;45.490;4.912;2023-08-06T15:29:59;20.50;81.20
40123;DHT22;25832;45.490;4.912;2023-08-06T15:32:24;20.50;81.70
40123;DHT22;25832;45.490;4.912;2023-08-06T15:34:51;20.60;81.50
40123;DHT22;25832;45.490;4.912;2023-08-06T15:37:16;20.60;81.10
40123;DHT22;25832;45.490;4.912;2023-08-06T15:39:43;20.70;80.60
40123;DHT22;25832;45.490;4.912;2023-08-06T15:42:09;20.80;80.30
40123;DHT22;25832;45.490;4.912;2023-08-06T15:44:35;20.80;79.90
40123;DHT22;25832;45.490;4.912;2023-08-06T15:47:00;20.70;79.10
40123;DHT22;25832;45.490;4.912;2023-08-06T15:49:26;20.60;80.00
40123;DHT22;25832;45.490;4.912;2023-08-06T15:51:51;20.50;79.70